Main page
METAR-TAF:

METAR-TAF

Airports :

Yeovilton, England

RNAS Yeovilton (HMS Heron)

latitude: 51-00N, longitude: 002-38W, elevation: 23 m

Current weather observation

The report was made 1 hour and 2 minutes ago, at 12:50 UTC
Wind 2 kt from the West
Temperature 19°C
Humidity 83%
Pressure 1014 hPa
Visibility 10 km or more

METAR: EGDY 241250Z AUTO 28002KT 9999 BKN015/// SCT025/// 19/16 Q1014 RERA

Time: 14:52 (13:52 UTC)

Forecast

The report was made 30 hours and 33 minutes ago, at 07:19 UTC
Forecast valid from 23 at 09 UTC to 23 at 18 UTC
Wind 7 kt from the West/Southwest
Visibility 10 km or more
Broken clouds at a height of 2500 ft

TAF: EGDY 230719Z 2309/2318 25007KT 9999 BKN025

Weather observations and forecasts of more than 4000 airports (METAR and TAF reports).

The available stations are represented by yellow and red dots on the map.

Hover mouse over dot to see the name of the station.

Then click to see weather observations and forecasts.

To change the map : click on the green buttons with a black cross to zoom in, on the green button with a dash to zoom out, or on the green arrows for adjacent maps.


METAR-TAF: